Terminal Aerodrome Forecast
Issued by NWS

Home | Current Version | Previous Version | Text Only | Print | Product List | Glossary On
Versions: 1 2 3 4 5 6 7 8 9 10 11 12 13
547
FTUS42 TJSJ 130539
TAFJBQ
TAF
TJBQ 130539Z 1306/1406 13002KT P6SM FEW030
     FM131400 07015KT P6SM FEW022 SCT040
     FM132300 10004KT P6SM SCT025
      AMD NOT SKED TIL 131100=

USA.gov is the U.S. government's official web portal to all federal, state and local government web resources and services.